Time;durP1;ratioP1;P1;durP2;ratioP2;P2;SDS_P1;SDS_P2;PMS_P1;PMS_P2;Temp;Humidity;BMP_temperature;BMP_pressure;BME280_temperature;BME280_humidity;BME280_pressure;Samples;Min_cycle;Max_cycle;Signal;HPM_P1;HPM_P2
2023/07/23 00:00:18;;;;;;;4.72;2.15;;;26.00;85.30;;;;;;10751080;33;20052;-71
2023/07/23 00:06:20;;;;;;;4.93;2.47;;;25.90;85.30;;;;;;10756126;33;20017;-71
2023/07/23 00:12:22;;;;;;;2.83;1.85;;;25.90;85.30;;;;;;10755990;33;20013;-71
2023/07/23 00:18:24;;;;;;;4.75;1.73;;;26.00;85.30;;;;;;10755618;33;20043;-71
2023/07/23 00:24:27;;;;;;;5.55;2.28;;;25.90;85.20;;;;;;10755260;33;20020;-71
2023/07/23 00:30:29;;;;;;;4.57;1.95;;;25.80;85.40;;;;;;10755396;33;20025;-71
2023/07/23 00:36:32;;;;;;;1.95;1.35;;;25.90;85.50;;;;;;10754459;33;20048;-71
2023/07/23 00:42:34;;;;;;;2.92;2.03;;;25.80;85.20;;;;;;10754680;33;20025;-71
2023/07/23 00:48:36;;;;;;;3.05;1.92;;;25.70;85.40;;;;;;10754903;33;20016;-71
2023/07/23 00:54:39;;;;;;;3.40;2.15;;;25.80;85.30;;;;;;10754730;33;20031;-72
2023/07/23 01:00:41;;;;;;;2.33;1.50;;;25.80;85.00;;;;;;10754390;33;20075;-72
2023/07/23 01:06:44;;;;;;;3.80;2.05;;;25.70;85.10;;;;;;10752874;33;20036;-71
2023/07/23 01:12:47;;;;;;;1.98;1.58;;;25.70;85.20;;;;;;10754124;33;20017;-72
2023/07/23 01:18:49;;;;;;;4.62;1.87;;;25.70;85.40;;;;;;10751545;33;20047;-72
2023/07/23 01:24:51;;;;;;;3.03;1.70;;;25.70;85.10;;;;;;10753970;33;20060;-72
2023/07/23 01:30:54;;;;;;;1.92;1.58;;;25.70;84.90;;;;;;10753641;33;20036;-72
2023/07/23 01:36:57;;;;;;;4.00;2.15;;;25.60;84.80;;;;;;10753468;33;20029;-71
2023/07/23 01:42:59;;;;;;;2.28;1.50;;;25.60;84.50;;;;;;10753289;33;20016;-72
2023/07/23 01:49:01;;;;;;;4.07;1.95;;;25.50;84.40;;;;;;10752968;33;20079;-72
2023/07/23 01:55:04;;;;;;;2.62;1.70;;;25.40;84.20;;;;;;10753000;33;20017;-72
2023/07/23 02:01:06;;;;;;;2.90;1.83;;;25.30;84.20;;;;;;10752842;33;20017;-71
2023/07/23 02:07:08;;;;;;;3.28;1.37;;;25.30;84.10;;;;;;10752727;33;20017;-71
2023/07/23 02:13:10;;;;;;;3.25;1.92;;;25.30;84.10;;;;;;10752462;33;20021;-72
2023/07/23 02:19:13;;;;;;;4.45;1.90;;;25.30;84.10;;;;;;10752192;33;20082;-71
2023/07/23 02:25:15;;;;;;;3.12;1.83;;;25.30;84.10;;;;;;10752209;33;20020;-71
2023/07/23 02:31:17;;;;;;;3.45;1.90;;;25.20;84.30;;;;;;10752085;33;20017;-71
2023/07/23 02:37:19;;;;;;;2.00;1.27;;;25.20;84.30;;;;;;10751824;33;20021;-71
2023/07/23 02:43:21;;;;;;;2.58;1.70;;;25.30;84.20;;;;;;10753583;27;20040;-71
2023/07/23 02:49:23;;;;;;;2.70;1.60;;;25.20;84.50;;;;;;10751588;33;20342;-71
2023/07/23 02:55:25;;;;;;;2.47;1.15;;;25.10;84.50;;;;;;10750591;33;20028;-71
2023/07/23 03:01:27;;;;;;;4.05;1.98;;;25.00;84.60;;;;;;10749934;33;20272;-71
2023/07/23 03:07:34;;;;;;;3.40;1.65;;;25.00;84.50;;;;;;10751162;33;20025;-71
2023/07/23 03:13:36;;;;;;;5.03;1.90;;;25.00;84.50;;;;;;10751167;33;20358;-71
2023/07/23 03:19:38;;;;;;;4.90;2.05;;;25.00;84.80;;;;;;10750768;33;20035;-71
2023/07/23 03:25:40;;;;;;;2.90;1.73;;;24.90;85.00;;;;;;10750734;33;20017;-71
2023/07/23 03:31:42;;;;;;;3.70;2.15;;;24.90;84.90;;;;;;10750611;33;20044;-71
2023/07/23 03:37:44;;;;;;;4.55;1.83;;;24.80;84.90;;;;;;10750989;33;20025;-71
2023/07/23 03:43:47;;;;;;;2.53;1.40;;;24.80;85.10;;;;;;10750338;33;20021;-71
2023/07/23 03:49:49;;;;;;;3.35;1.95;;;24.80;85.00;;;;;;10750312;33;20330;-71
2023/07/23 03:55:51;;;;;;;1.55;1.23;;;24.80;85.20;;;;;;10750034;33;20428;-71
2023/07/23 04:01:53;;;;;;;2.62;1.55;;;24.70;85.40;;;;;;10749848;33;20037;-71
2023/07/23 04:07:55;;;;;;;3.97;1.92;;;24.70;85.30;;;;;;10749840;33;20428;-71
2023/07/23 04:13:57;;;;;;;4.65;2.08;;;24.70;85.10;;;;;;10755889;33;20017;-71
2023/07/23 04:19:59;;;;;;;4.68;2.83;;;24.60;85.20;;;;;;10755715;33;20420;-72
2023/07/23 04:26:02;;;;;;;1.77;1.52;;;24.60;85.40;;;;;;10755576;33;20175;-71
2023/07/23 04:32:33;;;;;;;3.72;1.98;;;24.70;85.10;;;;;;10755499;33;20025;-72
2023/07/23 04:38:36;;;;;;;3.05;1.55;;;24.60;85.40;;;;;;10753889;33;20036;-71
2023/07/23 04:44:38;;;;;;;2.47;1.87;;;24.70;85.40;;;;;;10754962;33;20016;-71
2023/07/23 04:50:40;;;;;;;3.42;1.83;;;24.70;85.40;;;;;;10753972;33;20035;-71
2023/07/23 04:56:42;;;;;;;4.50;2.37;;;24.70;85.10;;;;;;10754598;33;20075;-72
2023/07/23 05:02:44;;;;;;;3.65;1.95;;;24.60;84.80;;;;;;10754595;33;20021;-73
2023/07/23 05:08:46;;;;;;;2.97;1.58;;;24.50;85.30;;;;;;10754184;32;20055;-73
2023/07/23 05:14:48;;;;;;;3.67;1.95;;;24.60;85.40;;;;;;10754196;33;20347;-73
2023/07/23 05:20:50;;;;;;;3.53;2.10;;;24.60;85.30;;;;;;10753445;33;20059;-73
2023/07/23 05:26:52;;;;;;;5.10;2.50;;;24.50;85.60;;;;;;10753533;33;20052;-73
2023/07/23 05:32:54;;;;;;;2.40;1.42;;;24.40;85.50;;;;;;10753669;33;20012;-73
2023/07/23 05:38:56;;;;;;;4.18;1.98;;;24.50;85.20;;;;;;10752267;33;20410;-73
2023/07/23 05:44:58;;;;;;;3.85;2.25;;;24.60;85.20;;;;;;10753276;33;20039;-73
2023/07/23 05:51:00;;;;;;;2.40;1.55;;;24.80;85.40;;;;;;10752362;33;20043;-74
2023/07/23 05:57:02;;;;;;;1.17;0.98;;;24.80;85.30;;;;;;10752915;33;20020;-71
2023/07/23 06:03:04;;;;;;;3.30;2.05;;;24.80;85.00;;;;;;10752814;33;20013;-71
2023/07/23 06:09:06;;;;;;;2.37;1.73;;;25.00;85.20;;;;;;10752657;33;20425;-70
2023/07/23 06:15:09;;;;;;;2.05;1.40;;;25.00;85.20;;;;;;10752393;32;20354;-71
2023/07/23 06:21:11;;;;;;;3.85;2.45;;;25.00;84.80;;;;;;10752232;33;20039;-70
2023/07/23 06:27:13;;;;;;;3.95;2.17;;;25.20;84.80;;;;;;10752183;33;20382;-70
2023/07/23 06:33:15;;;;;;;5.05;2.35;;;25.30;85.00;;;;;;10751096;33;20013;-70
2023/07/23 06:39:19;;;;;;;4.57;2.22;;;25.30;85.30;;;;;;10751627;33;20449;-69
2023/07/23 06:45:21;;;;;;;4.40;2.40;;;25.40;85.00;;;;;;10751689;33;20047;-69
2023/07/23 06:51:22;;;;;;;4.40;2.03;;;25.40;84.80;;;;;;10751615;33;20381;-70
2023/07/23 06:57:25;;;;;;;4.03;2.37;;;25.50;84.40;;;;;;10751321;33;20047;-70
2023/07/23 07:03:27;;;;;;;3.85;2.37;;;25.60;83.90;;;;;;10751278;33;20021;-70
2023/07/23 07:09:29;;;;;;;3.40;1.87;;;25.70;83.30;;;;;;10751049;33;20012;-70
2023/07/23 07:15:31;;;;;;;5.60;2.92;;;25.70;83.60;;;;;;10750865;33;20331;-70
2023/07/23 07:21:33;;;;;;;3.87;1.80;;;25.80;82.80;;;;;;10749741;33;20087;-70
2023/07/23 07:27:35;;;;;;;3.85;2.45;;;25.80;82.00;;;;;;10750915;33;20319;-70
2023/07/23 07:33:37;;;;;;;4.43;2.40;;;25.90;82.20;;;;;;10750650;33;20013;-70
2023/07/23 07:39:40;;;;;;;7.72;3.37;;;26.00;82.10;;;;;;10750430;33;20044;-70
2023/07/23 07:45:50;;;;;;;4.75;2.83;;;26.20;83.00;;;;;;10754361;33;20053;-70
2023/07/23 07:51:52;;;;;;;4.07;2.15;;;26.30;83.40;;;;;;10756556;33;20025;-70
2023/07/23 07:57:54;;;;;;;4.25;2.62;;;26.30;82.50;;;;;;10756229;33;20013;-71
2023/07/23 08:03:57;;;;;;;5.18;2.70;;;26.60;82.70;;;;;;10756185;32;20029;-73
2023/07/23 08:10:00;;;;;;;4.60;2.10;;;26.60;84.00;;;;;;10753909;33;20044;-73
2023/07/23 08:16:03;;;;;;;4.30;2.05;;;26.80;83.40;;;;;;10755745;33;20338;-73
2023/07/23 08:22:06;;;;;;;6.93;3.62;;;26.80;82.80;;;;;;10751207;33;20420;-72
2023/07/23 08:28:10;;;;;;;3.25;2.17;;;26.80;82.50;;;;;;10755499;33;20017;-74
2023/07/23 08:34:12;;;;;;;4.70;2.40;;;26.80;82.80;;;;;;10753478;33;20407;-73
2023/07/23 08:40:15;;;;;;;8.57;2.42;;;27.10;82.60;;;;;;10755050;33;20025;-73
2023/07/23 08:46:27;;;;;;;4.62;2.12;;;27.30;82.70;;;;;;10752888;33;20021;-73
2023/07/23 08:52:31;;;;;;;3.12;1.90;;;27.40;81.80;;;;;;10754694;33;20020;-73
2023/07/23 08:58:33;;;;;;;5.07;2.90;;;27.60;81.50;;;;;;10753076;33;20053;-73
2023/07/23 09:04:36;;;;;;;3.08;1.52;;;27.70;81.00;;;;;;10754503;33;20043;-72
2023/07/23 09:10:38;;;;;;;6.72;2.80;;;27.90;80.10;;;;;;10753527;33;20421;-73
2023/07/23 09:16:42;;;;;;;5.72;3.28;;;28.00;80.30;;;;;;10754054;33;20017;-73
2023/07/23 09:22:46;;;;;;;3.75;2.22;;;28.10;79.80;;;;;;10753923;33;20307;-73
2023/07/23 09:28:50;;;;;;;6.00;3.80;;;28.20;79.70;;;;;;10753846;33;20021;-73
2023/07/23 09:34:57;;;;;;;5.25;2.58;;;28.30;79.30;;;;;;10753583;33;20090;-73
2023/07/23 09:41:00;;;;;;;5.72;3.80;;;28.40;80.00;;;;;;10753456;33;20033;-72
2023/07/23 09:47:02;;;;;;;4.57;2.67;;;28.50;79.10;;;;;;10749237;33;20017;-73
2023/07/23 09:53:08;;;;;;;6.53;3.20;;;28.70;78.50;;;;;;10747905;33;20414;-73
2023/07/23 09:59:12;;;;;;;6.93;4.00;;;28.80;76.90;;;;;;10748752;32;20036;-73
2023/07/23 10:05:18;;;;;;;6.80;2.58;;;28.90;76.60;;;;;;10752550;33;20386;-73
2023/07/23 10:11:20;;;;;;;5.57;3.17;;;29.00;76.50;;;;;;10752497;33;20039;-73
2023/07/23 10:17:22;;;;;;;6.68;2.87;;;29.20;76.00;;;;;;10747095;33;20309;-73
2023/07/23 10:23:24;;;;;;;14.57;3.40;;;29.20;75.00;;;;;;10715048;33;20453;-72
2023/07/23 10:29:27;;;;;;;8.68;3.70;;;29.40;74.90;;;;;;10715842;33;20024;-74
2023/07/23 10:35:54;;;;;;;7.35;3.15;;;29.40;74.30;;;;;;10715645;33;20017;-73
2023/07/23 10:41:56;;;;;;;5.72;3.10;;;29.30;74.40;;;;;;10354717;27;12060688;-73
2023/07/23 10:48:01;;;;;;;10.38;3.60;;;29.10;75.30;;;;;;10672552;33;20068;-72
2023/07/23 10:54:05;;;;;;;5.72;3.37;;;29.10;75.20;;;;;;10675903;33;20057;-73
2023/07/23 11:00:22;;;;;;;10.07;4.93;;;29.40;73.80;;;;;;10675245;33;20021;-73
2023/07/23 11:06:25;;;;;;;;;;;29.80;74.80;;;;;;10640642;33;20397;-73
2023/07/23 11:12:27;;;;;;;8.07;3.20;;;30.00;74.00;;;;;;10711622;33;19928;-74
2023/07/23 11:18:32;;;;;;;7.30;4.25;;;30.30;73.50;;;;;;10716376;33;20026;-73
2023/07/23 11:25:11;;;;;;;5.53;3.10;;;30.30;72.30;;;;;;10721088;33;20010;-73
2023/07/23 11:31:13;;;;;;;7.22;4.18;;;30.50;72.00;;;;;;10720782;33;20070;-73
2023/07/23 11:37:15;;;;;;;5.78;3.47;;;30.20;71.50;;;;;;10720557;33;20318;-73
2023/07/23 11:43:18;;;;;;;7.47;2.70;;;29.80;72.50;;;;;;10720480;33;20349;-74
2023/07/23 11:49:20;;;;;;;6.45;3.03;;;29.90;72.10;;;;;;10720285;33;20040;-73
2023/07/23 11:55:26;;;;;;;7.87;3.85;;;30.00;71.50;;;;;;10731436;33;20033;-73
2023/07/23 12:01:29;;;;;;;6.03;3.10;;;29.80;71.80;;;;;;10719689;33;20056;-73
2023/07/23 12:07:31;;;;;;;6.68;2.85;;;29.80;71.40;;;;;;10719675;33;20031;-72
2023/07/23 12:13:33;;;;;;;6.53;2.90;;;30.00;70.80;;;;;;10719682;33;20130;-72
2023/07/23 12:19:43;;;;;;;4.25;3.12;;;29.80;71.00;;;;;;10719462;33;20032;-72
2023/07/23 12:25:45;;;;;;;5.53;3.42;;;30.20;69.90;;;;;;10719259;33;20040;-71
2023/07/23 12:31:49;;;;;;;7.70;3.87;;;30.60;68.10;;;;;;10717467;33;20056;-72
2023/07/23 12:37:51;;;;;;;10.05;4.37;;;30.90;67.40;;;;;;10719723;33;20332;-70
2023/07/23 12:43:53;;;;;;;6.45;3.53;;;31.20;66.80;;;;;;10714694;33;20473;-72
2023/07/23 12:49:58;;;;;;;7.62;4.43;;;31.40;66.50;;;;;;10719824;33;20367;-70
2023/07/23 12:56:00;;;;;;;6.72;2.78;;;31.30;66.10;;;;;;10717547;33;20021;-72
2023/07/23 13:02:02;;;;;;;5.30;3.17;;;31.50;66.40;;;;;;10718316;33;20406;-72
2023/07/23 13:08:04;;;;;;;8.02;4.28;;;31.60;66.60;;;;;;10718775;33;20028;-72
2023/07/23 13:14:06;;;;;;;7.60;3.70;;;31.60;65.00;;;;;;10729249;33;20033;-70
2023/07/23 13:20:09;;;;;;;6.18;3.97;;;31.50;64.50;;;;;;10717788;33;20032;-70
2023/07/23 13:26:11;;;;;;;8.05;4.22;;;31.40;64.80;;;;;;10717632;33;20048;-71
2023/07/23 13:32:13;;;;;;;10.13;4.12;;;31.40;64.30;;;;;;10717496;33;20056;-71
2023/07/23 13:38:15;;;;;;;18.52;5.28;;;31.30;64.00;;;;;;10717277;33;20025;-71
2023/07/23 13:44:17;;;;;;;8.75;6.00;;;31.40;63.30;;;;;;10716968;33;20025;-71
2023/07/23 13:50:19;;;;;;;9.60;5.03;;;31.30;62.20;;;;;;10716959;33;20429;-72
2023/07/23 13:56:21;;;;;;;7.18;4.40;;;31.30;62.20;;;;;;10717341;33;20351;-72
2023/07/23 14:02:25;;;;;;;4.78;3.30;;;31.30;62.00;;;;;;10716593;33;20048;-72
2023/07/23 14:08:27;;;;;;;8.05;4.15;;;31.40;62.60;;;;;;10727695;33;20063;-71
2023/07/23 14:14:29;;;;;;;7.32;3.83;;;31.60;62.00;;;;;;10715943;33;20030;-71
2023/07/23 14:20:31;;;;;;;6.60;3.85;;;31.50;63.10;;;;;;10715722;33;20029;-72
2023/07/23 14:26:33;;;;;;;8.00;3.87;;;31.40;62.90;;;;;;10715915;33;20040;-70
2023/07/23 14:32:35;;;;;;;7.35;4.32;;;31.30;62.90;;;;;;10715794;33;20354;-72
2023/07/23 14:38:37;;;;;;;6.53;3.75;;;31.30;62.80;;;;;;10715263;33;20433;-72
2023/07/23 14:44:39;;;;;;;6.50;3.78;;;31.50;63.20;;;;;;10726489;33;20083;-72
2023/07/23 14:50:41;;;;;;;8.80;3.70;;;31.70;64.10;;;;;;10715367;33;20021;-71
2023/07/23 14:56:45;;;;;;;5.93;3.60;;;31.90;63.00;;;;;;10714697;33;20060;-70
2023/07/23 15:02:47;;;;;;;6.35;3.67;;;32.00;62.30;;;;;;10715024;33;20017;-72
2023/07/23 15:08:49;;;;;;;5.90;3.33;;;32.00;62.20;;;;;;10714954;33;20026;-71
2023/07/23 15:14:51;;;;;;;6.60;3.78;;;32.10;61.80;;;;;;10713957;33;20044;-72
2023/07/23 15:20:55;;;;;;;7.65;3.70;;;32.10;61.70;;;;;;10714590;33;20483;-72
2023/07/23 15:27:01;;;;;;;6.37;3.92;;;32.20;61.50;;;;;;10714612;33;20395;-72
2023/07/23 15:33:03;;;;;;;4.65;2.75;;;32.30;61.40;;;;;;10713852;33;20048;-72
2023/07/23 15:39:05;;;;;;;9.32;4.32;;;32.30;61.10;;;;;;10725312;33;20033;-72
2023/07/23 15:45:08;;;;;;;6.60;4.45;;;32.20;61.20;;;;;;10714072;33;20029;-72
2023/07/23 15:51:10;;;;;;;6.82;3.97;;;32.10;61.60;;;;;;10713897;33;20071;-72
2023/07/23 15:57:12;;;;;;;9.95;4.95;;;32.10;62.00;;;;;;10700879;33;20033;-72
2023/07/23 16:03:14;;;;;;;7.95;4.55;;;32.30;61.90;;;;;;10714208;33;20056;-72
2023/07/23 16:09:16;;;;;;;6.75;3.62;;;32.10;63.10;;;;;;10719857;33;20025;-71
2023/07/23 16:15:20;;;;;;;8.15;4.20;;;32.00;63.30;;;;;;10726746;33;20064;-72
2023/07/23 16:21:22;;;;;;;7.95;5.40;;;32.10;63.40;;;;;;10719308;33;20043;-72
2023/07/23 16:27:25;;;;;;;5.47;3.42;;;32.10;63.30;;;;;;10730049;33;20040;-72
2023/07/23 16:33:27;;;;;;;11.40;5.03;;;32.10;64.20;;;;;;10718174;33;20017;-72
2023/07/23 16:39:31;;;;;;;8.90;4.15;;;32.20;63.80;;;;;;10715740;33;20047;-72
2023/07/23 16:45:33;;;;;;;7.55;4.30;;;32.20;64.10;;;;;;10718665;33;20047;-72
2023/07/23 16:51:35;;;;;;;5.68;3.45;;;32.30;64.00;;;;;;10714727;33;20048;-72
2023/07/23 16:57:37;;;;;;;5.47;3.03;;;32.30;65.00;;;;;;10718425;33;20025;-72
2023/07/23 17:03:39;;;;;;;8.15;3.70;;;32.20;65.00;;;;;;10718347;33;20304;-72
2023/07/23 17:09:42;;;;;;;6.75;3.80;;;32.20;65.70;;;;;;10718792;33;20422;-72
2023/07/23 17:15:45;;;;;;;7.50;4.70;;;32.10;65.40;;;;;;10717544;33;20052;-71
2023/07/23 17:21:48;;;;;;;5.82;4.07;;;32.10;65.50;;;;;;10717717;33;20025;-72
2023/07/23 17:27:50;;;;;;;7.87;4.05;;;32.10;65.30;;;;;;10717546;33;20009;-72
2023/07/23 17:33:52;;;;;;;6.35;3.58;;;32.00;65.50;;;;;;10717517;33;20060;-72
2023/07/23 17:39:54;;;;;;;6.22;3.35;;;32.10;65.50;;;;;;10717140;33;20056;-72
2023/07/23 17:45:56;;;;;;;8.05;4.12;;;32.10;65.30;;;;;;10724342;33;20036;-72
2023/07/23 17:51:58;;;;;;;5.25;3.10;;;32.00;65.10;;;;;;10728193;33;20064;-72
2023/07/23 17:58:01;;;;;;;7.03;4.25;;;32.00;65.40;;;;;;10716656;33;20029;-72
2023/07/23 18:04:06;;;;;;;6.62;3.28;;;32.10;65.80;;;;;;10716504;33;20335;-72
2023/07/23 18:10:08;;;;;;;8.20;3.20;;;32.30;66.10;;;;;;10716397;33;20356;-73
2023/07/23 18:16:10;;;;;;;7.05;3.92;;;32.30;65.90;;;;;;10716292;33;20017;-73
2023/07/23 18:22:14;;;;;;;7.25;3.80;;;31.80;66.60;;;;;;10715586;33;20059;-73
2023/07/23 18:28:16;;;;;;;6.82;4.45;;;31.50;67.30;;;;;;10715180;33;20063;-73
2023/07/23 18:34:20;;;;;;;5.95;3.55;;;31.30;68.00;;;;;;10715481;33;20020;-73
2023/07/23 18:40:22;;;;;;;7.20;4.12;;;31.00;68.60;;;;;;10715421;33;20048;-73
2023/07/23 18:46:25;;;;;;;10.48;4.40;;;30.80;69.20;;;;;;10750670;27;20083;-73
2023/07/23 18:52:27;;;;;;;6.45;3.65;;;30.80;69.50;;;;;;10751448;32;20033;-73
2023/07/23 18:58:31;;;;;;;7.12;3.50;;;30.60;69.70;;;;;;10734762;33;20047;-72
2023/07/23 19:04:43;;;;;;;6.57;3.33;;;30.50;69.90;;;;;;10728320;33;20320;-73
2023/07/23 19:10:45;;;;;;;4.57;2.62;;;30.40;70.20;;;;;;10743084;33;20059;-72
2023/07/23 19:16:47;;;;;;;4.55;2.00;;;30.30;70.60;;;;;;10727625;33;20033;-73
2023/07/23 19:22:49;;;;;;;6.80;3.25;;;30.30;70.90;;;;;;10720718;33;20360;-72
2023/07/23 19:28:51;;;;;;;5.78;2.62;;;30.10;70.90;;;;;;10738579;33;20665;-73
2023/07/23 19:34:54;;;;;;;3.25;2.00;;;30.10;71.10;;;;;;10730325;33;20043;-72
2023/07/23 19:40:56;;;;;;;4.37;2.65;;;30.00;71.30;;;;;;10731955;33;20063;-72
2023/07/23 19:46:58;;;;;;;5.12;3.35;;;29.90;71.40;;;;;;10734650;33;20043;-73
2023/07/23 19:53:00;;;;;;;5.15;3.08;;;29.80;71.80;;;;;;10736569;33;20051;-73
2023/07/23 19:59:03;;;;;;;6.53;3.20;;;29.80;71.80;;;;;;10735490;33;20029;-73
2023/07/23 20:05:06;;;;;;;3.97;2.53;;;29.70;71.90;;;;;;10749572;33;20051;-73
2023/07/23 20:11:10;;;;;;;5.53;2.85;;;29.70;72.00;;;;;;10756024;33;20017;-73
2023/07/23 20:17:13;;;;;;;6.47;3.53;;;29.60;72.40;;;;;;10755802;33;20043;-73
2023/07/23 20:23:16;;;;;;;4.57;2.85;;;29.60;72.80;;;;;;10746494;33;20331;-73
2023/07/23 20:29:18;;;;;;;7.90;3.15;;;29.50;72.90;;;;;;10771314;33;20334;-73
2023/07/23 20:35:21;;;;;;;4.68;2.40;;;29.50;73.20;;;;;;10791873;33;20021;-73
2023/07/23 20:41:23;;;;;;;5.00;3.08;;;29.50;73.40;;;;;;10790699;33;20037;-73
2023/07/23 20:47:26;;;;;;;4.90;3.25;;;29.40;73.60;;;;;;10775579;33;20428;-73
2023/07/23 20:53:31;;;;;;;4.70;2.62;;;29.40;73.90;;;;;;10753818;33;20043;-72
2023/07/23 20:59:35;;;;;;;4.22;2.08;;;29.40;74.10;;;;;;10754486;33;20028;-72
2023/07/23 21:05:38;;;;;;;5.37;2.55;;;29.30;74.40;;;;;;10754662;33;20017;-72
2023/07/23 21:11:42;;;;;;;3.72;1.98;;;29.30;74.60;;;;;;10754440;33;20358;-72
2023/07/23 21:17:44;;;;;;;5.62;3.58;;;29.30;74.90;;;;;;10754363;32;20345;-72
2023/07/23 21:23:46;;;;;;;9.40;2.67;;;29.30;75.00;;;;;;10754076;33;20039;-72
2023/07/23 21:29:48;;;;;;;4.93;2.90;;;29.30;75.20;;;;;;10753805;33;20013;-72
2023/07/23 21:35:50;;;;;;;4.37;2.67;;;29.20;75.50;;;;;;10753642;32;20036;-72
2023/07/23 21:41:52;;;;;;;5.18;2.90;;;29.20;75.70;;;;;;10753449;33;20055;-72
2023/07/23 21:47:54;;;;;;;6.68;3.50;;;29.10;75.90;;;;;;10753410;33;20074;-72
2023/07/23 21:53:57;;;;;;;6.65;3.40;;;29.20;76.20;;;;;;10753418;33;20044;-72
2023/07/23 21:59:59;;;;;;;5.87;3.10;;;29.10;77.10;;;;;;10753063;33;20024;-72
2023/07/23 22:06:02;;;;;;;6.57;3.10;;;28.90;77.90;;;;;;10752720;33;20021;-72
2023/07/23 22:12:07;;;;;;;5.57;3.28;;;28.80;78.60;;;;;;10753935;33;20016;-72
2023/07/23 22:18:09;;;;;;;7.97;4.40;;;28.80;78.80;;;;;;10752491;33;20319;-72
2023/07/23 22:24:11;;;;;;;5.37;2.92;;;28.80;78.90;;;;;;10752454;33;20039;-73
2023/07/23 22:30:14;;;;;;;23.10;4.30;;;28.80;79.00;;;;;;10752377;33;20066;-73
2023/07/23 22:36:27;;;;;;;5.97;4.00;;;28.80;79.00;;;;;;10752183;33;20323;-73
2023/07/23 22:42:29;;;;;;;8.35;3.33;;;28.80;78.90;;;;;;10751847;33;20043;-73
2023/07/23 22:48:31;;;;;;;8.82;3.87;;;28.60;78.90;;;;;;10751770;33;20319;-73
2023/07/23 22:54:33;;;;;;;7.72;4.25;;;28.60;78.80;;;;;;10751569;33;20048;-73
2023/07/23 23:01:00;;;;;;;6.53;3.72;;;28.60;78.80;;;;;;10751423;33;20078;-73
2023/07/23 23:07:02;;;;;;;7.82;4.75;;;28.50;79.10;;;;;;10750573;33;20020;-73
2023/07/23 23:13:07;;;;;;;5.72;3.37;;;28.50;79.50;;;;;;10751371;33;20016;-73
2023/07/23 23:19:12;;;;;;;4.80;3.35;;;28.40;80.00;;;;;;10757713;33;20021;-73
2023/07/23 23:25:33;;;;;;;6.55;4.15;;;28.20;80.80;;;;;;10757380;33;20005;-73
2023/07/23 23:31:36;;;;;;;8.57;4.53;;;28.10;81.30;;;;;;10757321;33;20013;-73
2023/07/23 23:37:39;;;;;;;7.00;3.75;;;28.10;81.70;;;;;;10757230;33;20021;-73
2023/07/23 23:43:41;;;;;;;6.05;3.53;;;28.00;82.10;;;;;;10756982;33;20024;-73
2023/07/23 23:49:43;;;;;;;6.22;3.37;;;28.10;82.30;;;;;;10756792;33;20005;-73
2023/07/23 23:55:45;;;;;;;6.10;3.85;;;28.10;81.90;;;;;;10756608;33;20052;-73
